createdAt,value
2022-07-30T00:00:26.716Z,970.32
2022-07-30T00:01:26.957Z,970.32
2022-07-30T00:02:27.197Z,970.31
2022-07-30T00:03:27.453Z,970.32
2022-07-30T00:04:27.708Z,970.31
2022-07-30T00:05:27.938Z,970.30
2022-07-30T00:06:28.178Z,970.32
2022-07-30T00:07:28.418Z,970.29
2022-07-30T00:08:28.659Z,970.28
2022-07-30T00:09:28.929Z,970.30
2022-07-30T00:10:29.262Z,970.28
2022-07-30T00:11:29.499Z,970.28
2022-07-30T00:12:29.740Z,970.27
2022-07-30T00:13:29.981Z,970.28
2022-07-30T00:14:30.227Z,970.24
2022-07-30T00:15:30.463Z,970.27
2022-07-30T00:16:30.738Z,970.26
2022-07-30T00:17:30.992Z,970.25
2022-07-30T00:18:31.253Z,970.24
2022-07-30T00:19:31.492Z,970.24
2022-07-30T00:20:32.310Z,970.27
2022-07-30T00:21:38.520Z,970.24
2022-07-30T00:22:33.266Z,970.25
2022-07-30T00:23:32.563Z,970.24
2022-07-30T00:24:32.815Z,970.22
2022-07-30T00:25:33.054Z,970.21
2022-07-30T00:26:33.303Z,970.22
2022-07-30T00:27:33.544Z,970.21
2022-07-30T00:28:33.776Z,970.21
2022-07-30T00:29:34.025Z,970.22
2022-07-30T00:30:34.307Z,970.23
2022-07-30T00:31:34.557Z,970.20
2022-07-30T00:32:34.797Z,970.22
2022-07-30T00:33:35.037Z,970.21
2022-07-30T00:34:35.282Z,970.21
2022-07-30T00:35:35.535Z,970.21
2022-07-30T00:36:35.757Z,970.21
2022-07-30T00:37:36.049Z,970.22
2022-07-30T00:38:36.289Z,970.20
2022-07-30T00:39:36.530Z,970.18
2022-07-30T00:40:36.770Z,970.19
2022-07-30T00:41:37.015Z,970.20
2022-07-30T00:42:37.252Z,970.20
2022-07-30T00:43:37.491Z,970.19
2022-07-30T00:44:41.099Z,970.19
2022-07-30T00:45:38.071Z,970.17
2022-07-30T00:46:38.311Z,970.20
2022-07-30T00:47:38.552Z,970.14
2022-07-30T00:48:38.862Z,970.11
2022-07-30T00:49:44.191Z,970.16
2022-07-30T00:50:39.273Z,970.17
2022-07-30T00:51:39.513Z,970.17
2022-07-30T00:52:39.751Z,970.20
2022-07-30T00:53:40.014Z,970.18
2022-07-30T00:54:41.082Z,970.18
2022-07-30T00:55:40.504Z,970.18
2022-07-30T00:56:40.744Z,970.18
2022-07-30T00:57:40.985Z,970.17
2022-07-30T00:58:41.284Z,970.17
2022-07-30T00:59:41.538Z,970.17
2022-07-30T01:00:41.808Z,970.17
2022-07-30T01:01:42.057Z,970.17
2022-07-30T01:02:42.305Z,970.19
2022-07-30T01:03:42.537Z,970.16
2022-07-30T01:04:42.788Z,970.17
2022-07-30T01:05:43.029Z,970.16
2022-07-30T01:06:43.269Z,970.12
2022-07-30T01:07:43.509Z,970.12
2022-07-30T01:08:43.749Z,970.11
2022-07-30T01:09:44.869Z,970.15
2022-07-30T01:10:44.342Z,970.12
2022-07-30T01:11:44.570Z,970.17
2022-07-30T01:12:44.817Z,970.14
2022-07-30T01:13:45.050Z,970.20
2022-07-30T01:14:46.916Z,970.13
2022-07-30T01:15:45.598Z,970.12
2022-07-30T01:16:45.868Z,970.12
2022-07-30T01:17:46.082Z,970.09
2022-07-30T01:18:47.322Z,970.15
2022-07-30T01:19:46.622Z,970.09
2022-07-30T01:20:46.913Z,970.15
2022-07-30T01:21:47.158Z,970.18
2022-07-30T01:22:47.394Z,970.09
2022-07-30T01:23:47.636Z,970.13
2022-07-30T01:24:47.885Z,970.11
2022-07-30T01:25:48.125Z,970.08
2022-07-30T01:26:48.375Z,970.07
2022-07-30T01:27:48.617Z,970.03
2022-07-30T01:28:48.856Z,970.02
2022-07-30T01:29:49.096Z,970.02
2022-07-30T01:30:50.148Z,970.01
2022-07-30T01:31:49.652Z,969.98
2022-07-30T01:32:49.897Z,970.02
2022-07-30T01:33:50.147Z,969.98
2022-07-30T01:34:50.397Z,969.99
2022-07-30T01:35:50.638Z,969.97
2022-07-30T01:36:50.895Z,969.98
2022-07-30T01:37:51.129Z,969.98
2022-07-30T01:38:51.369Z,970.00
2022-07-30T01:39:51.618Z,969.95
2022-07-30T01:40:51.860Z,969.94
2022-07-30T01:41:52.100Z,969.94
2022-07-30T01:42:52.349Z,969.96
2022-07-30T01:43:52.589Z,969.94
2022-07-30T01:44:52.832Z,969.94
2022-07-30T01:45:53.165Z,969.94
2022-07-30T01:46:53.474Z,969.93
2022-07-30T01:47:53.713Z,969.97
2022-07-30T01:48:54.032Z,969.98
2022-07-30T01:49:54.233Z,969.97
2022-07-30T01:50:54.473Z,969.97
2022-07-30T01:51:54.713Z,969.96
2022-07-30T01:52:54.954Z,969.90
2022-07-30T01:53:55.207Z,969.89
2022-07-30T01:54:55.453Z,969.86
2022-07-30T01:55:55.696Z,969.89
2022-07-30T01:56:55.947Z,969.88
2022-07-30T01:57:56.216Z,969.86
2022-07-30T01:58:56.457Z,969.89
2022-07-30T01:59:56.700Z,969.90
2022-07-30T02:00:56.982Z,969.87
2022-07-30T02:01:57.235Z,969.87
2022-07-30T02:02:57.477Z,969.88
2022-07-30T02:03:57.761Z,969.87
2022-07-30T02:04:58.009Z,969.86
2022-07-30T02:05:58.259Z,969.84
2022-07-30T02:06:58.775Z,969.84
2022-07-30T02:07:58.790Z,969.88
2022-07-30T02:08:59.038Z,969.86
2022-07-30T02:09:59.272Z,969.84
2022-07-30T02:10:59.520Z,969.85
2022-07-30T02:11:59.768Z,969.86
2022-07-30T02:13:00.015Z,969.87
2022-07-30T02:14:00.252Z,969.88
2022-07-30T02:15:00.501Z,969.92
2022-07-30T02:16:00.789Z,969.90
2022-07-30T02:17:01.491Z,969.91
2022-07-30T02:18:01.346Z,969.88
2022-07-30T02:19:01.585Z,969.85
2022-07-30T02:20:03.791Z,969.87
2022-07-30T02:21:05.426Z,969.89
2022-07-30T02:22:02.395Z,969.86
2022-07-30T02:23:02.634Z,969.88
2022-07-30T02:24:02.876Z,969.91
2022-07-30T02:25:03.122Z,969.90
2022-07-30T02:26:03.366Z,969.88
2022-07-30T02:27:04.018Z,969.86
2022-07-30T02:28:03.926Z,969.86
2022-07-30T02:29:07.292Z,969.90
2022-07-30T02:30:05.398Z,969.89
2022-07-30T02:31:17.733Z,969.88
2022-07-30T02:32:05.946Z,969.85
2022-07-30T02:33:05.248Z,969.90
2022-07-30T02:34:05.488Z,969.91
2022-07-30T02:35:05.729Z,969.92
2022-07-30T02:36:06.017Z,969.90
2022-07-30T02:37:07.218Z,969.91
2022-07-30T02:38:06.522Z,969.89
2022-07-30T02:39:06.761Z,969.88
2022-07-30T02:40:07.001Z,969.91
2022-07-30T02:41:07.249Z,969.89
2022-07-30T02:42:07.541Z,969.89
2022-07-30T02:43:07.791Z,969.86
2022-07-30T02:44:08.031Z,969.88
2022-07-30T02:45:08.275Z,969.88
2022-07-30T02:46:08.513Z,969.88
2022-07-30T02:47:08.832Z,969.85
2022-07-30T02:48:09.043Z,969.86
2022-07-30T02:49:09.335Z,969.83
2022-07-30T02:50:09.564Z,969.86
2022-07-30T02:51:09.813Z,969.83
2022-07-30T02:52:10.045Z,969.81
2022-07-30T02:53:10.293Z,969.84
2022-07-30T02:54:10.854Z,969.88
2022-07-30T02:55:10.776Z,969.82
2022-07-30T02:56:11.016Z,969.86
2022-07-30T02:57:11.267Z,969.87
2022-07-30T02:58:11.507Z,969.88
2022-07-30T02:59:11.753Z,969.86
2022-07-30T03:00:12.032Z,969.87
2022-07-30T03:01:12.324Z,969.86
2022-07-30T03:02:12.589Z,969.87
2022-07-30T03:03:12.814Z,969.88
2022-07-30T03:04:13.052Z,969.87
2022-07-30T03:05:13.289Z,969.89
2022-07-30T03:06:13.550Z,969.84
2022-07-30T03:07:13.791Z,969.86
2022-07-30T03:08:14.032Z,969.90
2022-07-30T03:09:16.896Z,969.88
2022-07-30T03:10:14.501Z,969.87
2022-07-30T03:11:14.762Z,969.89
2022-07-30T03:12:15.004Z,969.88
2022-07-30T03:13:15.252Z,969.86
2022-07-30T03:14:15.492Z,969.87
2022-07-30T03:15:15.734Z,969.86
2022-07-30T03:16:16.037Z,969.84
2022-07-30T03:17:16.255Z,969.85
2022-07-30T03:18:16.493Z,969.86
2022-07-30T03:19:16.754Z,969.84
2022-07-30T03:20:16.993Z,969.86
2022-07-30T03:21:17.267Z,969.82
2022-07-30T03:22:17.505Z,969.84
2022-07-30T03:23:17.768Z,969.83
2022-07-30T03:24:18.053Z,969.82
2022-07-30T03:25:18.300Z,969.83
2022-07-30T03:26:18.547Z,969.82
2022-07-30T03:27:18.797Z,969.85
2022-07-30T03:28:19.038Z,969.82
2022-07-30T03:29:21.790Z,969.83
2022-07-30T03:30:19.616Z,969.86
2022-07-30T03:31:19.916Z,969.83
2022-07-30T03:32:20.119Z,969.87
2022-07-30T03:33:21.349Z,969.84
2022-07-30T03:34:20.651Z,969.87
2022-07-30T03:35:20.852Z,969.87
2022-07-30T03:36:21.108Z,969.90
2022-07-30T03:37:21.350Z,969.88
2022-07-30T03:38:21.591Z,969.91
2022-07-30T03:39:21.840Z,969.94
2022-07-30T03:40:22.073Z,969.94
2022-07-30T03:41:22.322Z,969.95
2022-07-30T03:42:22.583Z,969.95
2022-07-30T03:43:33.447Z,969.98
2022-07-30T03:44:24.033Z,969.98
2022-07-30T03:45:23.347Z,969.99
2022-07-30T03:46:23.649Z,969.97
2022-07-30T03:47:23.855Z,969.94
2022-07-30T03:48:24.105Z,969.97
2022-07-30T03:49:24.422Z,969.97
2022-07-30T03:50:24.626Z,969.93
2022-07-30T03:51:24.876Z,969.95
2022-07-30T03:52:25.116Z,969.90
2022-07-30T03:53:25.365Z,969.86
2022-07-30T03:54:25.608Z,969.90
2022-07-30T03:55:25.846Z,969.88
2022-07-30T03:56:26.097Z,969.86
2022-07-30T03:57:26.338Z,969.85
2022-07-30T03:58:26.577Z,969.82
2022-07-30T03:59:26.839Z,969.84
2022-07-30T04:00:27.079Z,969.80
2022-07-30T04:01:27.377Z,969.82
2022-07-30T04:02:27.607Z,969.83
2022-07-30T04:03:27.883Z,969.89
2022-07-30T04:04:28.149Z,969.88
2022-07-30T04:05:28.401Z,969.86
2022-07-30T04:06:29.631Z,969.79
2022-07-30T04:07:28.931Z,969.77
2022-07-30T04:08:29.173Z,969.71
2022-07-30T04:09:29.420Z,969.71
2022-07-30T04:10:29.662Z,969.74
2022-07-30T04:11:40.647Z,969.72
2022-07-30T04:12:31.133Z,969.74
2022-07-30T04:13:30.434Z,969.70
2022-07-30T04:14:30.682Z,969.71
2022-07-30T04:16:37.470Z,969.68
2022-07-30T04:16:38.956Z,969.71
2022-07-30T04:17:32.557Z,969.72
2022-07-30T04:18:31.772Z,969.74
2022-07-30T04:19:32.012Z,969.73
2022-07-30T04:20:32.256Z,969.75
2022-07-30T04:21:32.507Z,969.75
2022-07-30T04:22:32.753Z,969.75
2022-07-30T04:23:32.997Z,969.73
2022-07-30T04:24:34.228Z,969.74
2022-07-30T04:25:33.536Z,969.73
2022-07-30T04:26:33.801Z,969.74
2022-07-30T04:27:34.017Z,969.76
2022-07-30T04:28:34.269Z,969.77
2022-07-30T04:29:34.520Z,969.69
2022-07-30T04:30:34.793Z,969.71
2022-07-30T04:31:35.069Z,969.75
2022-07-30T04:32:36.278Z,969.72
2022-07-30T04:33:35.590Z,969.72
2022-07-30T04:34:35.841Z,969.73
2022-07-30T04:35:50.801Z,969.73
2022-07-30T04:36:37.323Z,969.75
2022-07-30T04:37:36.621Z,969.76
2022-07-30T04:38:36.870Z,969.79
2022-07-30T04:39:37.112Z,969.74
2022-07-30T04:40:37.360Z,969.78
2022-07-30T04:41:48.447Z,969.80
2022-07-30T04:42:38.853Z,969.76
2022-07-30T04:43:38.153Z,969.80
2022-07-30T04:44:38.394Z,969.79
2022-07-30T04:45:38.643Z,969.78
2022-07-30T04:46:38.924Z,969.78
2022-07-30T04:47:39.126Z,969.80
2022-07-30T04:48:39.449Z,969.81
2022-07-30T04:49:39.636Z,969.81
2022-07-30T04:50:39.877Z,969.84
2022-07-30T04:51:40.127Z,969.88
2022-07-30T04:52:40.426Z,969.88
2022-07-30T04:53:40.647Z,969.89
2022-07-30T04:54:40.888Z,969.86
2022-07-30T04:55:41.130Z,969.84
2022-07-30T04:56:41.379Z,969.82
2022-07-30T04:57:42.608Z,969.87
2022-07-30T04:58:41.911Z,969.86
2022-07-30T04:59:42.159Z,969.82
2022-07-30T05:00:42.416Z,969.82
2022-07-30T05:01:42.664Z,969.81
2022-07-30T05:02:42.890Z,969.82
2022-07-30T05:03:43.139Z,969.81
2022-07-30T05:04:43.394Z,969.80
2022-07-30T05:05:43.693Z,969.82
2022-07-30T05:06:43.941Z,969.85
2022-07-30T05:07:44.192Z,969.84
2022-07-30T05:08:44.453Z,969.80
2022-07-30T05:09:44.713Z,969.80
2022-07-30T05:10:44.976Z,969.83
2022-07-30T05:11:45.234Z,969.82
2022-07-30T05:12:45.485Z,969.78
2022-07-30T05:13:46.373Z,969.82
2022-07-30T05:14:48.307Z,969.82
2022-07-30T05:15:46.422Z,969.80
2022-07-30T05:16:46.696Z,969.85
2022-07-30T05:17:46.956Z,969.82
2022-07-30T05:18:47.215Z,969.86
2022-07-30T05:19:47.466Z,969.89
2022-07-30T05:20:47.817Z,969.89
2022-07-30T05:21:48.077Z,969.86
2022-07-30T05:22:50.931Z,969.87
2022-07-30T05:23:50.512Z,969.92
2022-07-30T05:24:48.848Z,969.89
2022-07-30T05:25:49.109Z,969.89
2022-07-30T05:26:49.372Z,969.93
2022-07-30T05:27:49.628Z,969.90
2022-07-30T05:28:55.052Z,969.87
2022-07-30T05:29:51.120Z,969.86
2022-07-30T05:30:50.470Z,969.83
2022-07-30T05:31:50.762Z,969.81
2022-07-30T05:32:50.991Z,969.84
2022-07-30T05:33:51.251Z,969.85
2022-07-30T05:34:51.501Z,969.87
2022-07-30T05:35:51.772Z,969.88
2022-07-30T05:36:52.032Z,969.84
2022-07-30T05:37:52.272Z,969.89
2022-07-30T05:38:52.523Z,969.89
2022-07-30T05:40:02.337Z,969.92
2022-07-30T05:40:53.993Z,969.88
2022-07-30T05:41:53.294Z,969.90
2022-07-30T05:42:53.545Z,969.89
2022-07-30T05:43:55.684Z,969.88
2022-07-30T05:44:54.125Z,969.89
2022-07-30T05:45:54.414Z,969.92
2022-07-30T05:46:54.639Z,969.89
2022-07-30T05:47:54.890Z,969.96
2022-07-30T05:48:55.213Z,969.95
2022-07-30T05:49:55.451Z,969.97
2022-07-30T05:50:55.701Z,970.03
2022-07-30T05:51:55.973Z,969.99
2022-07-30T05:52:56.250Z,970.03
2022-07-30T05:53:56.488Z,970.05
2022-07-30T05:54:56.733Z,970.02
2022-07-30T05:55:56.970Z,970.04
2022-07-30T05:56:57.239Z,970.03
2022-07-30T05:57:57.490Z,970.02
2022-07-30T05:58:57.731Z,970.07
2022-07-30T05:59:57.980Z,970.05
2022-07-30T06:00:58.231Z,970.02
2022-07-30T06:01:58.536Z,970.11
2022-07-30T06:02:58.752Z,970.13
2022-07-30T06:03:58.995Z,970.12
2022-07-30T06:04:59.314Z,970.18
2022-07-30T06:05:59.465Z,970.16
2022-07-30T06:07:00.002Z,970.16
2022-07-30T06:08:00.023Z,970.20
2022-07-30T06:09:00.264Z,970.19
2022-07-30T06:10:00.534Z,970.17
2022-07-30T06:11:00.759Z,970.18
2022-07-30T06:12:00.995Z,970.17
2022-07-30T06:13:01.245Z,970.19
2022-07-30T06:14:01.489Z,970.21
2022-07-30T06:15:01.742Z,970.25
2022-07-30T06:16:02.019Z,970.27
2022-07-30T06:17:02.668Z,970.26
2022-07-30T06:18:02.669Z,970.29
2022-07-30T06:19:02.887Z,970.24
2022-07-30T06:20:03.128Z,970.30
2022-07-30T06:21:03.380Z,970.30
2022-07-30T06:22:05.900Z,970.27
2022-07-30T06:23:03.911Z,970.29
2022-07-30T06:24:04.159Z,970.33
2022-07-30T06:25:04.401Z,970.35
2022-07-30T06:26:04.640Z,970.33
2022-07-30T06:27:05.069Z,970.30
2022-07-30T06:28:21.334Z,970.39
2022-07-30T06:29:06.400Z,970.39
2022-07-30T06:30:05.729Z,970.39
2022-07-30T06:31:06.020Z,970.35
2022-07-30T06:32:06.262Z,970.34
2022-07-30T06:33:06.503Z,970.34
2022-07-30T06:34:06.809Z,970.33
2022-07-30T06:35:07.042Z,970.34
2022-07-30T06:36:07.303Z,970.36
2022-07-30T06:37:07.551Z,970.35
2022-07-30T06:38:08.091Z,970.39
2022-07-30T06:39:08.074Z,970.39
2022-07-30T06:40:08.316Z,970.40
2022-07-30T06:41:08.575Z,970.32
2022-07-30T06:42:08.825Z,970.34
2022-07-30T06:43:09.077Z,970.35
2022-07-30T06:44:09.325Z,970.34
2022-07-30T06:45:09.567Z,970.36
2022-07-30T06:46:09.857Z,970.35
2022-07-30T06:47:10.397Z,970.39
2022-07-30T06:48:10.398Z,970.35
2022-07-30T06:49:10.687Z,970.38
2022-07-30T06:50:10.948Z,970.36
2022-07-30T06:51:11.207Z,970.36
2022-07-30T06:52:15.636Z,970.39
2022-07-30T06:53:12.709Z,970.37
2022-07-30T06:54:12.023Z,970.35
2022-07-30T06:55:12.280Z,970.41
2022-07-30T06:56:12.538Z,970.37
2022-07-30T06:57:12.822Z,970.38
2022-07-30T06:58:13.073Z,970.38
2022-07-30T06:59:13.334Z,970.44
2022-07-30T07:00:13.580Z,970.43
2022-07-30T07:01:13.852Z,970.41
2022-07-30T07:02:14.102Z,970.40
2022-07-30T07:03:14.363Z,970.42
2022-07-30T07:04:14.669Z,970.40
2022-07-30T07:05:14.923Z,970.40
2022-07-30T07:06:15.163Z,970.41
2022-07-30T07:07:19.938Z,970.43
2022-07-30T07:08:16.654Z,970.41
2022-07-30T07:09:15.962Z,970.38
2022-07-30T07:10:16.216Z,970.37
2022-07-30T07:11:16.476Z,970.44
2022-07-30T07:12:16.734Z,970.39
2022-07-30T07:13:16.986Z,970.35
2022-07-30T07:14:17.246Z,970.35
2022-07-30T07:15:17.497Z,970.36
2022-07-30T07:16:17.757Z,970.34
2022-07-30T07:17:18.044Z,970.37
2022-07-30T07:18:18.307Z,970.36
2022-07-30T07:20:01.705Z,970.35
2022-07-30T07:20:19.797Z,970.41
2022-07-30T07:21:19.108Z,970.43
2022-07-30T07:22:19.369Z,970.43
2022-07-30T07:23:20.076Z,970.44
2022-07-30T07:24:19.950Z,970.39
2022-07-30T07:25:20.201Z,970.42
2022-07-30T07:26:20.449Z,970.48
2022-07-30T07:27:20.701Z,970.47
2022-07-30T07:28:20.952Z,970.46
2022-07-30T07:29:21.211Z,970.51
2022-07-30T07:30:21.454Z,970.51
2022-07-30T07:32:06.359Z,970.50
2022-07-30T07:32:22.958Z,970.54
2022-07-30T07:33:22.253Z,970.50
2022-07-30T07:34:22.502Z,970.55
2022-07-30T07:35:22.742Z,970.52
2022-07-30T07:36:22.984Z,970.55
2022-07-30T07:37:23.555Z,970.49
2022-07-30T07:38:23.455Z,970.58
2022-07-30T07:39:23.708Z,970.53
2022-07-30T07:40:24.593Z,970.57
2022-07-30T07:41:24.237Z,970.56
2022-07-30T07:42:24.478Z,970.54
2022-07-30T07:43:24.727Z,970.57
2022-07-30T07:44:24.987Z,970.56
2022-07-30T07:45:25.248Z,970.57
2022-07-30T07:46:33.979Z,970.57
2022-07-30T07:47:26.748Z,970.57
2022-07-30T07:48:26.050Z,970.55
2022-07-30T07:49:26.356Z,970.58
2022-07-30T07:50:26.588Z,970.55
2022-07-30T07:51:47.738Z,970.54
2022-07-30T07:52:28.070Z,970.54
2022-07-30T07:53:27.371Z,970.54
2022-07-30T07:54:27.618Z,970.56
2022-07-30T07:55:27.867Z,970.57
2022-07-30T07:56:28.147Z,970.52
2022-07-30T07:57:28.393Z,970.53
2022-07-30T07:58:29.361Z,970.52
2022-07-30T07:59:36.096Z,970.54
2022-07-30T08:00:30.182Z,970.57
2022-07-30T08:01:29.537Z,970.59
2022-07-30T08:02:29.872Z,970.54
2022-07-30T08:03:30.103Z,970.56
2022-07-30T08:04:30.345Z,970.54
2022-07-30T08:06:00.990Z,970.58
2022-07-30T08:06:31.815Z,970.59
2022-07-30T08:07:31.138Z,970.62
2022-07-30T08:08:31.377Z,970.63
2022-07-30T08:09:42.637Z,970.65
2022-07-30T08:10:32.952Z,970.66
2022-07-30T08:11:32.146Z,970.66
2022-07-30T08:12:32.397Z,970.71
2022-07-30T08:13:52.729Z,970.68
2022-07-30T08:14:33.868Z,970.72
2022-07-30T08:15:33.168Z,970.72
2022-07-30T08:16:33.460Z,970.73
2022-07-30T08:17:33.708Z,970.73
2022-07-30T08:18:33.950Z,970.71
2022-07-30T08:19:34.203Z,970.71
2022-07-30T08:20:34.519Z,970.71
2022-07-30T08:21:34.791Z,970.75
2022-07-30T08:22:35.054Z,970.74
2022-07-30T08:23:37.773Z,970.75
2022-07-30T08:24:35.591Z,970.73
2022-07-30T08:25:35.851Z,970.80
2022-07-30T08:26:36.102Z,970.75
2022-07-30T08:27:36.363Z,970.79
2022-07-30T08:28:36.865Z,970.78
2022-07-30T08:29:36.951Z,970.71
2022-07-30T08:30:37.208Z,970.73
2022-07-30T08:31:37.454Z,970.69
2022-07-30T08:32:37.743Z,970.74
2022-07-30T08:33:37.994Z,970.74
2022-07-30T08:34:38.266Z,970.77
2022-07-30T08:35:38.515Z,970.76
2022-07-30T08:36:39.753Z,970.74
2022-07-30T08:37:39.055Z,970.77
2022-07-30T08:38:39.297Z,970.74
2022-07-30T08:39:39.544Z,970.77
2022-07-30T08:40:39.787Z,970.76
2022-07-30T08:41:40.026Z,970.77
2022-07-30T08:42:40.277Z,970.74
2022-07-30T08:43:40.527Z,970.73
2022-07-30T08:44:40.815Z,970.72
2022-07-30T08:45:41.077Z,970.75
2022-07-30T08:46:41.354Z,970.77
2022-07-30T08:47:42.579Z,970.74
2022-07-30T08:48:41.942Z,970.74
2022-07-30T08:49:42.208Z,970.71
2022-07-30T08:50:42.460Z,970.74
2022-07-30T08:51:42.720Z,970.69
2022-07-30T08:52:42.961Z,970.76
2022-07-30T08:53:43.200Z,970.74
2022-07-30T08:54:43.463Z,970.76
2022-07-30T08:55:43.736Z,970.78
2022-07-30T08:56:43.981Z,970.74
2022-07-30T08:57:44.232Z,970.76
2022-07-30T08:58:44.483Z,970.74
2022-07-30T08:59:59.935Z,970.74
2022-07-30T09:00:46.040Z,970.75
2022-07-30T09:01:45.233Z,970.81
2022-07-30T09:02:45.484Z,970.81
2022-07-30T09:03:45.725Z,970.84
2022-07-30T09:04:45.985Z,970.86
2022-07-30T09:05:46.225Z,970.85
2022-07-30T09:06:46.466Z,970.84
2022-07-30T09:07:46.796Z,970.83
2022-07-30T09:08:47.047Z,970.81
2022-07-30T09:09:47.286Z,970.81
2022-07-30T09:10:53.240Z,970.84
2022-07-30T09:11:48.787Z,970.84
2022-07-30T09:12:48.098Z,970.82
2022-07-30T09:13:48.356Z,970.79
2022-07-30T09:14:48.598Z,970.78
2022-07-30T09:15:48.920Z,970.77
2022-07-30T09:16:49.149Z,970.80
2022-07-30T09:17:49.388Z,970.80
2022-07-30T09:18:49.639Z,970.79
2022-07-30T09:19:49.880Z,970.78
2022-07-30T09:20:50.139Z,970.80
2022-07-30T09:21:50.381Z,970.81
2022-07-30T09:22:50.641Z,970.78
2022-07-30T09:23:51.285Z,970.87
2022-07-30T09:24:51.200Z,970.86
2022-07-30T09:25:51.461Z,970.88
2022-07-30T09:26:51.714Z,970.88
2022-07-30T09:27:51.952Z,970.87
2022-07-30T09:28:52.203Z,970.91
2022-07-30T09:29:52.462Z,970.90
2022-07-30T09:30:52.721Z,970.94
2022-07-30T09:31:53.004Z,970.91
2022-07-30T09:32:53.280Z,970.95
2022-07-30T09:33:53.562Z,970.89
2022-07-30T09:34:53.825Z,970.92
2022-07-30T09:35:54.085Z,970.88
2022-07-30T09:36:54.343Z,970.88
2022-07-30T09:37:54.605Z,970.87
2022-07-30T09:38:54.866Z,970.86
2022-07-30T09:39:58.986Z,970.86
2022-07-30T09:40:57.387Z,970.83
2022-07-30T09:41:55.687Z,970.83
2022-07-30T09:42:55.949Z,970.78
2022-07-30T09:43:56.268Z,970.82
2022-07-30T09:44:56.518Z,970.79
2022-07-30T09:45:57.809Z,970.82
2022-07-30T09:46:57.016Z,970.83
2022-07-30T09:47:57.269Z,970.81
2022-07-30T09:48:57.585Z,970.84
2022-07-30T09:49:57.840Z,970.85
2022-07-30T09:50:58.120Z,970.84
2022-07-30T09:51:58.384Z,970.81
2022-07-30T09:52:58.641Z,970.80
2022-07-30T09:53:58.904Z,970.83
2022-07-30T09:54:59.209Z,970.84
2022-07-30T09:55:59.504Z,970.86
2022-07-30T09:56:59.753Z,970.83
2022-07-30T09:58:00.056Z,970.85
2022-07-30T09:59:00.302Z,970.85
2022-07-30T10:00:00.563Z,970.81
2022-07-30T10:01:00.876Z,970.84
2022-07-30T10:02:04.149Z,970.85
2022-07-30T10:03:12.579Z,970.85
2022-07-30T10:04:02.595Z,970.87
2022-07-30T10:05:01.920Z,970.85
2022-07-30T10:06:03.095Z,970.82
2022-07-30T10:07:03.556Z,970.79
2022-07-30T10:08:09.240Z,970.78
2022-07-30T10:09:14.311Z,970.71
2022-07-30T10:10:06.177Z,970.74
2022-07-30T10:11:05.189Z,970.73
2022-07-30T10:12:05.084Z,970.74
2022-07-30T10:13:04.977Z,970.70
2022-07-30T10:14:04.298Z,970.68
2022-07-30T10:15:06.196Z,970.68
2022-07-30T10:16:04.859Z,970.65
2022-07-30T10:17:05.149Z,970.69
2022-07-30T10:18:06.345Z,970.66
2022-07-30T10:19:05.692Z,970.65
2022-07-30T10:20:08.048Z,970.66
2022-07-30T10:21:06.271Z,970.64
2022-07-30T10:22:06.530Z,970.64
2022-07-30T10:23:08.248Z,970.62
2022-07-30T10:24:07.140Z,970.61
2022-07-30T10:25:07.402Z,970.60
2022-07-30T10:26:07.958Z,970.62
2022-07-30T10:27:08.278Z,970.58
2022-07-30T10:28:08.233Z,970.57
2022-07-30T10:29:08.493Z,970.55
2022-07-30T10:30:08.761Z,970.50
2022-07-30T10:31:48.466Z,970.56
2022-07-30T10:32:10.285Z,970.54
2022-07-30T10:33:11.275Z,970.53
2022-07-30T10:34:10.845Z,970.49
2022-07-30T10:35:10.135Z,970.46
2022-07-30T10:36:10.404Z,970.50
2022-07-30T10:37:10.655Z,970.45
2022-07-30T10:38:13.848Z,970.43
2022-07-30T10:39:11.234Z,970.42
2022-07-30T10:40:11.465Z,970.39
2022-07-30T10:41:11.717Z,970.39
2022-07-30T10:42:11.988Z,970.34
2022-07-30T10:43:12.247Z,970.30
2022-07-30T10:44:12.527Z,970.28
2022-07-30T10:45:17.200Z,970.29
2022-07-30T10:46:19.942Z,970.31
2022-07-30T10:47:14.407Z,970.30
2022-07-30T10:48:13.720Z,970.26
2022-07-30T10:49:18.999Z,970.18
2022-07-30T10:50:15.685Z,970.15
2022-07-30T10:51:25.562Z,970.18
2022-07-30T10:52:15.741Z,970.16
2022-07-30T10:53:15.064Z,970.15
2022-07-30T10:54:15.322Z,970.22
2022-07-30T10:55:15.818Z,970.20
2022-07-30T10:56:15.881Z,970.20
2022-07-30T10:57:22.614Z,970.21
2022-07-30T10:58:18.023Z,970.20
2022-07-30T10:59:17.664Z,970.20
2022-07-30T11:00:17.670Z,970.14
2022-07-30T11:01:18.557Z,970.12
2022-07-30T11:02:17.680Z,970.11
2022-07-30T11:03:18.106Z,970.17
2022-07-30T11:04:20.488Z,970.14
2022-07-30T11:05:18.583Z,970.18
2022-07-30T11:06:24.244Z,970.17
2022-07-30T11:07:19.836Z,970.20
2022-07-30T11:08:19.166Z,970.21
2022-07-30T11:09:20.406Z,970.27
2022-07-30T11:10:19.717Z,970.26
2022-07-30T11:11:20.473Z,970.24
2022-07-30T11:12:20.563Z,970.29
2022-07-30T11:13:25.096Z,970.26
2022-07-30T11:14:21.718Z,970.24
2022-07-30T11:15:21.008Z,970.25
2022-07-30T11:16:21.268Z,970.25
2022-07-30T11:17:21.529Z,970.28
2022-07-30T11:18:21.790Z,970.24
2022-07-30T11:19:56.204Z,970.26
2022-07-30T11:20:23.330Z,970.27
2022-07-30T11:21:22.871Z,970.30
2022-07-30T11:22:22.923Z,970.25
2022-07-30T11:23:23.227Z,970.21
2022-07-30T11:24:23.453Z,970.23
2022-07-30T11:25:23.762Z,970.22
2022-07-30T11:26:25.029Z,970.17
2022-07-30T11:27:24.323Z,970.22
2022-07-30T11:28:24.654Z,970.20
2022-07-30T11:29:32.798Z,970.19
2022-07-30T11:30:26.215Z,970.19
2022-07-30T11:31:30.587Z,970.23
2022-07-30T11:32:26.616Z,970.23
2022-07-30T11:33:33.112Z,970.21
2022-07-30T11:34:27.175Z,970.25
2022-07-30T11:35:26.485Z,970.23
2022-07-30T11:36:27.726Z,970.25
2022-07-30T11:37:32.451Z,970.25
2022-07-30T11:38:28.288Z,970.24
2022-07-30T11:39:29.905Z,970.25
2022-07-30T11:40:28.910Z,970.26
2022-07-30T11:41:28.168Z,970.25
2022-07-30T11:42:28.429Z,970.23
2022-07-30T11:43:35.825Z,970.23
2022-07-30T11:44:29.932Z,970.22
2022-07-30T11:45:29.239Z,970.21
2022-07-30T11:46:30.002Z,970.20
2022-07-30T11:47:29.740Z,970.18
2022-07-30T11:48:29.999Z,970.22
2022-07-30T11:49:30.289Z,970.15
2022-07-30T11:50:30.561Z,970.16
2022-07-30T11:51:30.823Z,970.22
2022-07-30T11:52:31.081Z,970.22
2022-07-30T11:53:31.362Z,970.22
2022-07-30T11:54:31.611Z,970.22
2022-07-30T11:55:31.862Z,970.18
2022-07-30T11:56:32.122Z,970.23
2022-07-30T11:57:38.423Z,970.21
2022-07-30T11:58:33.643Z,970.14
2022-07-30T11:59:32.966Z,970.16
2022-07-30T12:00:33.244Z,970.18
2022-07-30T12:01:33.507Z,970.13
2022-07-30T12:02:33.755Z,970.17
2022-07-30T12:03:34.015Z,970.19
2022-07-30T12:04:34.267Z,970.13
2022-07-30T12:05:34.526Z,970.10
2022-07-30T12:06:34.784Z,970.08
2022-07-30T12:07:35.046Z,970.12
2022-07-30T12:08:36.463Z,970.12
2022-07-30T12:09:35.537Z,970.08
2022-07-30T12:10:35.798Z,970.10
2022-07-30T12:11:36.054Z,970.10
2022-07-30T12:12:36.317Z,970.10
2022-07-30T12:13:43.863Z,970.08
2022-07-30T12:14:37.809Z,970.05
2022-07-30T12:15:37.122Z,970.05
2022-07-30T12:16:37.379Z,970.07
2022-07-30T12:17:37.630Z,970.10
2022-07-30T12:18:37.911Z,970.06
2022-07-30T12:19:47.561Z,970.11
2022-07-30T12:20:39.401Z,970.03
2022-07-30T12:21:38.713Z,970.07
2022-07-30T12:22:38.972Z,970.09
2022-07-30T12:23:39.232Z,970.08
2022-07-30T12:24:39.482Z,970.14
2022-07-30T12:25:39.742Z,970.12
2022-07-30T12:26:40.974Z,970.11
2022-07-30T12:27:40.292Z,970.17
2022-07-30T12:28:40.544Z,970.16
2022-07-30T12:29:40.804Z,970.11
2022-07-30T12:30:41.067Z,970.12
2022-07-30T12:31:41.335Z,970.06